Weather at Lapoint Seaplane Base

Public forecast

Using degrees Fahrenheit for public forecast. Weather courtesy of forecast.io.

Closest aviation weather report (METAR) to Lapoint Seaplane Base

Closest report is Drummond Island Airport, 2.9 nm (5.3 km) SW. Retrieved 2021/08/01 00:55 UTC (6 minutes ago):

KDRM 010055Z AUTO 00000KT 10SM SCT013 BKN029 OVC038 19/16 A2987 RMK AO2 T01850156

Closest aviation forecast (TAF) to Lapoint Seaplane Base

Closest forecast is Sault Ste Marie Airport, 43.2 nm (80.0 km) NW. Retrieved 2021/07/31 20:39 UTC (4 hours ago):

TAF TAF CYAM 311938Z 3120/0108 VRB03KT P6SM SCT005 OVC020 TEMPO 3120/3123 5SM -SHRA BR BKN005 OVC012 PROB30 3120/3123 2SM TSRA BR BKN008 OVC015CB FM312300 31012KT P6SM OVC012 TEMPO 3123/0106 5SM -RA BR OVC005 FM010600 32010KT P6SM BKN015 PROB30 0106/0108 2SM TSRA BR OVC015CB RMK NXT FCST BY 010200Z